createdAt,value
2022-12-14T00:00:32.341Z,-9.12
2022-12-14T00:03:38.296Z,-9.17
2022-12-14T00:06:44.428Z,-9.18
2022-12-14T00:09:50.073Z,-9.26
2022-12-14T00:12:56.042Z,-9.39
2022-12-14T00:16:05.254Z,-9.41
2022-12-14T00:19:13.584Z,-9.44
2022-12-14T00:22:19.143Z,-9.58
2022-12-14T00:25:24.949Z,-9.69
2022-12-14T00:28:30.538Z,-9.81
2022-12-14T00:31:36.621Z,-9.90
2022-12-14T00:34:40.714Z,-9.90
2022-12-14T00:37:49.002Z,-9.86
2022-12-14T00:40:55.364Z,-9.87
2022-12-14T00:44:00.837Z,-9.93
2022-12-14T00:47:06.496Z,-10.09
2022-12-14T00:50:29.653Z,-10.26
2022-12-14T00:53:35.207Z,-10.40
2022-12-14T00:56:40.757Z,-10.48
2022-12-14T00:59:46.409Z,-10.56
2022-12-14T01:02:52.061Z,-10.58
2022-12-14T01:05:57.815Z,-10.59
2022-12-14T01:09:03.603Z,-10.54
2022-12-14T01:12:09.700Z,-10.53
2022-12-14T01:15:13.849Z,-10.57
2022-12-14T01:18:20.635Z,-10.66
2022-12-14T01:21:27.442Z,-10.83
2022-12-14T01:24:33.058Z,-11.03
2022-12-14T01:27:38.710Z,-11.14
2022-12-14T01:30:44.367Z,-11.26
2022-12-14T01:33:50.464Z,-11.34
2022-12-14T01:36:54.543Z,-11.38
2022-12-14T01:40:00.803Z,-11.34
2022-12-14T01:43:11.583Z,-11.33
2022-12-14T01:46:22.699Z,-11.42
2022-12-14T01:49:33.326Z,-11.44
2022-12-14T01:52:42.256Z,-11.45
2022-12-14T01:55:53.228Z,-11.55
2022-12-14T01:59:03.081Z,-11.64
2022-12-14T02:02:12.194Z,-11.70
2022-12-14T02:05:19.605Z,-11.75
2022-12-14T02:08:26.698Z,-11.80
2022-12-14T02:11:40.739Z,-11.85
2022-12-14T02:14:47.312Z,-11.84
2022-12-14T02:17:52.963Z,-11.86
2022-12-14T02:21:17.364Z,-11.91
2022-12-14T02:24:48.813Z,-11.96
2022-12-14T02:28:10.644Z,-12.00
2022-12-14T02:31:21.662Z,-12.05
2022-12-14T02:34:36.078Z,-12.10
2022-12-14T02:37:49.257Z,-12.12
2022-12-14T02:41:02.710Z,-12.07
2022-12-14T02:44:21.908Z,-12.05
2022-12-14T02:47:37.403Z,-12.14
2022-12-14T02:50:52.157Z,-12.20
2022-12-14T02:54:02.337Z,-12.25
2022-12-14T02:57:13.623Z,-12.33
2022-12-14T03:00:21.157Z,-12.36
2022-12-14T03:03:27.061Z,-12.36
2022-12-14T03:06:32.909Z,-12.33
2022-12-14T03:09:38.665Z,-12.25
2022-12-14T03:12:47.138Z,-12.23
2022-12-14T03:15:59.363Z,-12.24
2022-12-14T03:19:12.264Z,-12.27
2022-12-14T03:22:21.915Z,-12.43
2022-12-14T03:25:33.445Z,-12.56
2022-12-14T03:28:45.920Z,-12.63
2022-12-14T03:31:54.864Z,-12.73
2022-12-14T03:35:02.698Z,-12.74
2022-12-14T03:38:18.069Z,-12.75
2022-12-14T03:41:30.886Z,-12.78
2022-12-14T03:44:48.796Z,-12.77
2022-12-14T03:48:09.532Z,-12.76
2022-12-14T03:51:21.431Z,-12.77
2022-12-14T03:54:37.445Z,-12.78
2022-12-14T03:57:56.898Z,-12.74
2022-12-14T04:01:12.052Z,-12.73
2022-12-14T04:04:23.153Z,-12.64
2022-12-14T04:07:38.950Z,-12.60
2022-12-14T04:11:03.542Z,-12.64
2022-12-14T04:14:32.566Z,-12.63
2022-12-14T04:17:59.181Z,-12.61
2022-12-14T04:21:10.466Z,-12.66
2022-12-14T04:24:39.150Z,-12.68
2022-12-14T04:27:50.544Z,-12.70
2022-12-14T04:30:58.448Z,-12.71
2022-12-14T04:34:07.067Z,-12.67
2022-12-14T04:37:16.869Z,-12.68
2022-12-14T04:40:25.993Z,-12.69
2022-12-14T04:43:36.518Z,-12.67
2022-12-14T04:46:44.037Z,-12.66
2022-12-14T04:49:54.580Z,-12.63
2022-12-14T04:53:06.578Z,-12.58
2022-12-14T04:56:20.630Z,-12.51
2022-12-14T04:59:27.366Z,-12.46
2022-12-14T05:02:46.191Z,-12.42
2022-12-14T05:06:03.490Z,-12.40
2022-12-14T05:09:22.242Z,-12.40
2022-12-14T05:12:36.298Z,-12.39
2022-12-14T05:15:45.389Z,-12.39
2022-12-14T05:18:51.478Z,-12.47
2022-12-14T05:21:57.466Z,-12.55
2022-12-14T05:25:01.467Z,-12.60
2022-12-14T05:28:07.733Z,-12.63
2022-12-14T05:31:13.555Z,-12.66
2022-12-14T05:34:19.429Z,-12.65
2022-12-14T05:37:25.098Z,-12.59
2022-12-14T05:40:30.748Z,-12.54
2022-12-14T05:43:36.601Z,-12.51
2022-12-14T05:46:42.257Z,-12.55
2022-12-14T05:49:49.286Z,-12.59
2022-12-14T05:52:55.926Z,-12.60
2022-12-14T05:56:01.567Z,-12.57
2022-12-14T05:59:07.322Z,-12.58
2022-12-14T06:02:13.100Z,-12.55
2022-12-14T06:05:19.098Z,-12.57
2022-12-14T06:08:24.685Z,-12.61
2022-12-14T06:11:30.340Z,-12.64
2022-12-14T06:14:35.988Z,-12.60
2022-12-14T06:17:45.397Z,-12.55
2022-12-14T06:20:51.082Z,-12.52
2022-12-14T06:23:57.637Z,-12.57
2022-12-14T06:27:03.511Z,-12.62
2022-12-14T06:30:12.153Z,-12.60
2022-12-14T06:33:17.784Z,-12.56
2022-12-14T06:36:24.974Z,-12.56
2022-12-14T06:39:30.555Z,-12.55
2022-12-14T06:42:36.172Z,-12.52
2022-12-14T06:45:42.031Z,-12.50
2022-12-14T06:48:52.157Z,-12.45
2022-12-14T06:51:57.735Z,-12.41
2022-12-14T06:55:03.388Z,-12.41
2022-12-14T06:58:11.860Z,-12.40
2022-12-14T07:01:19.472Z,-12.36
2022-12-14T07:04:25.155Z,-12.30
2022-12-14T07:07:32.856Z,-12.24
2022-12-14T07:10:38.381Z,-12.19
2022-12-14T07:13:43.950Z,-12.14
2022-12-14T07:16:49.439Z,-12.08
2022-12-14T07:19:55.875Z,-12.02
2022-12-14T07:23:01.421Z,-11.98
2022-12-14T07:26:09.165Z,-11.97
2022-12-14T07:29:16.898Z,-11.86
2022-12-14T07:32:22.570Z,-11.75
2022-12-14T07:35:28.123Z,-11.61
2022-12-14T07:38:33.873Z,-11.46
2022-12-14T07:41:39.401Z,-11.32
2022-12-14T07:44:45.386Z,-11.22
2022-12-14T07:47:51.039Z,-11.12
2022-12-14T07:51:01.932Z,-11.02
2022-12-14T07:54:08.858Z,-10.98
2022-12-14T07:57:14.856Z,-10.85
2022-12-14T08:00:19.543Z,-10.73
2022-12-14T08:03:25.448Z,-10.66
2022-12-14T08:06:31.977Z,-10.58
2022-12-14T08:09:37.566Z,-10.45
2022-12-14T08:12:43.114Z,-10.32
2022-12-14T08:15:48.807Z,-10.28
2022-12-14T08:18:55.959Z,-10.23
2022-12-14T08:22:01.604Z,-10.15
2022-12-14T08:25:08.889Z,-10.03
2022-12-14T08:28:14.445Z,-9.92
2022-12-14T08:31:21.884Z,-9.85
2022-12-14T08:34:27.473Z,-9.79
2022-12-14T08:37:33.142Z,-9.68
2022-12-14T08:40:39.609Z,-9.51
2022-12-14T08:43:45.263Z,-9.39
2022-12-14T08:46:50.938Z,-9.33
2022-12-14T08:49:56.976Z,-9.12
2022-12-14T08:53:02.735Z,-8.82
2022-12-14T08:56:11.561Z,-8.62
2022-12-14T08:59:37.137Z,-8.43
2022-12-14T09:02:41.384Z,-8.26
2022-12-14T09:05:47.250Z,-8.18
2022-12-14T09:08:53.208Z,-8.04
2022-12-14T09:12:03.476Z,-7.85
2022-12-14T09:15:11.908Z,-7.67
2022-12-14T09:18:17.395Z,-7.52
2022-12-14T09:21:23.449Z,-7.45
2022-12-14T09:24:29.152Z,-7.37
2022-12-14T09:27:34.801Z,-7.27
2022-12-14T09:30:40.499Z,-7.15
2022-12-14T09:33:46.314Z,-7.06
2022-12-14T09:36:53.155Z,-6.93
2022-12-14T09:39:58.840Z,-6.81
2022-12-14T09:43:07.193Z,-6.77
2022-12-14T09:46:28.471Z,-6.71
2022-12-14T09:49:39.836Z,-6.62
2022-12-14T09:52:50.510Z,-6.54
2022-12-14T09:55:59.078Z,-6.46
2022-12-14T09:59:05.245Z,-6.32
2022-12-14T10:02:33.162Z,-6.18
2022-12-14T10:06:03.420Z,-6.10
2022-12-14T10:09:21.185Z,-6.02
2022-12-14T10:12:43.287Z,-5.92
2022-12-14T10:16:01.098Z,-5.82
2022-12-14T10:19:17.321Z,-5.66
2022-12-14T10:22:22.771Z,-5.55
2022-12-14T10:25:30.985Z,-5.46
2022-12-14T10:28:46.059Z,-5.37
2022-12-14T10:32:00.476Z,-5.28
2022-12-14T10:35:16.192Z,-5.20
2022-12-14T10:38:32.230Z,-5.12
2022-12-14T10:41:49.587Z,-5.07
2022-12-14T10:45:39.137Z,-5.01
2022-12-14T10:48:40.977Z,-4.92
2022-12-14T10:51:51.120Z,-4.77
2022-12-14T10:55:00.109Z,-4.68
2022-12-14T10:58:06.107Z,-4.61
2022-12-14T11:01:16.105Z,-4.52
2022-12-14T11:04:31.955Z,-4.42
2022-12-14T11:07:43.392Z,-4.27
2022-12-14T11:10:49.666Z,-4.15
2022-12-14T11:13:55.109Z,-4.10
2022-12-14T11:17:00.914Z,-4.03
2022-12-14T11:20:19.626Z,-4.03
2022-12-14T11:23:29.520Z,-4.10
2022-12-14T11:26:39.309Z,-4.08
2022-12-14T11:29:49.482Z,-4.00
2022-12-14T11:32:55.412Z,-3.95
2022-12-14T11:36:01.334Z,-3.89
2022-12-14T11:39:19.895Z,-3.86
2022-12-14T11:42:26.764Z,-3.88
2022-12-14T11:45:35.281Z,-3.86
2022-12-14T11:48:50.873Z,-3.87
2022-12-14T11:52:07.589Z,-3.85
2022-12-14T11:55:21.571Z,-3.79
2022-12-14T11:58:33.455Z,-3.77
2022-12-14T12:01:39.511Z,-3.79
2022-12-14T12:04:49.243Z,-3.76
2022-12-14T12:07:57.822Z,-3.63
2022-12-14T12:11:06.253Z,-3.49
2022-12-14T12:14:26.679Z,-3.38
2022-12-14T12:17:44.460Z,-3.33
2022-12-14T12:20:55.237Z,-3.32
2022-12-14T12:24:07.357Z,-3.38
2022-12-14T12:27:17.036Z,-3.42
2022-12-14T12:30:29.339Z,-3.44
2022-12-14T12:33:42.676Z,-3.42
2022-12-14T12:37:24.241Z,-3.38
2022-12-14T12:40:20.531Z,-3.36
2022-12-14T12:43:31.796Z,-3.32
2022-12-14T12:47:07.140Z,-3.27
2022-12-14T12:50:18.707Z,-3.26
2022-12-14T12:53:31.550Z,-3.24
2022-12-14T12:56:44.569Z,-3.21
2022-12-14T12:59:57.632Z,-3.15
2022-12-14T13:03:10.126Z,-3.16
2022-12-14T13:06:23.102Z,-3.16
2022-12-14T13:09:42.010Z,-3.09
2022-12-14T13:12:51.800Z,-3.02
2022-12-14T13:16:04.387Z,-2.98
2022-12-14T13:22:49.548Z,-3.28
2022-12-14T13:26:13.390Z,-3.45
2022-12-14T13:29:39.152Z,-3.56
2022-12-14T13:32:57.542Z,-3.61
2022-12-14T13:36:39.403Z,-3.61
2022-12-14T13:40:25.761Z,-3.64
2022-12-14T13:43:43.237Z,-3.65
2022-12-14T13:46:57.500Z,-3.67
2022-12-14T13:50:49.847Z,-3.68
2022-12-14T13:53:37.083Z,-3.71
2022-12-14T13:56:42.815Z,-3.75
2022-12-14T13:59:53.172Z,-3.81
2022-12-14T14:02:58.875Z,-3.86
2022-12-14T14:06:16.048Z,-3.89
2022-12-14T14:10:01.590Z,-3.96
2022-12-14T14:13:45.481Z,-4.04
2022-12-14T14:16:58.708Z,-4.07
2022-12-14T14:20:27.608Z,-4.10
2022-12-14T14:23:36.031Z,-4.20
2022-12-14T14:26:43.786Z,-4.24
2022-12-14T14:29:51.259Z,-4.21
2022-12-14T14:33:13.526Z,-4.20
2022-12-14T14:36:27.509Z,-4.21
2022-12-14T14:39:56.601Z,-4.20
2022-12-14T14:43:07.683Z,-4.23
2022-12-14T14:46:19.156Z,-4.15
2022-12-14T14:49:32.712Z,-4.04
2022-12-14T14:53:02.439Z,-4.06
2022-12-14T14:56:38.438Z,-4.14
2022-12-14T14:59:58.643Z,-4.21
2022-12-14T15:03:06.584Z,-4.24
2022-12-14T15:06:17.395Z,-4.22
2022-12-14T15:09:31.002Z,-4.20
2022-12-14T15:12:42.904Z,-4.18
2022-12-14T15:15:56.613Z,-4.13
2022-12-14T15:19:24.792Z,-4.07
2022-12-14T15:22:32.523Z,-4.03
2022-12-14T15:25:38.275Z,-3.97
2022-12-14T15:28:43.926Z,-3.91
2022-12-14T15:31:57.602Z,-3.86
2022-12-14T15:35:10.547Z,-3.81
2022-12-14T15:38:24.430Z,-3.76
2022-12-14T15:41:33.169Z,-3.71
2022-12-14T15:44:40.341Z,-3.65
2022-12-14T15:47:49.146Z,-3.59
2022-12-14T15:50:57.033Z,-3.53
2022-12-14T15:54:05.899Z,-3.49
2022-12-14T15:57:18.877Z,-3.46
2022-12-14T16:00:24.692Z,-3.43
2022-12-14T16:03:36.082Z,-3.38
2022-12-14T16:06:44.325Z,-3.35
2022-12-14T16:09:58.932Z,-3.34
2022-12-14T16:13:07.816Z,-3.32
2022-12-14T16:16:16.684Z,-3.28
2022-12-14T16:19:28.624Z,-3.26
2022-12-14T16:22:39.467Z,-3.27
2022-12-14T16:25:55.664Z,-3.26
2022-12-14T16:29:20.309Z,-3.23
2022-12-14T16:32:26.335Z,-3.25
2022-12-14T16:35:35.038Z,-3.23
2022-12-14T16:38:56.130Z,-3.24
2022-12-14T16:42:04.183Z,-3.21
2022-12-14T16:45:37.047Z,-3.03
2022-12-14T16:48:45.854Z,-2.88
2022-12-14T16:52:07.702Z,-2.91
2022-12-14T16:55:17.049Z,-2.92
2022-12-14T16:58:23.113Z,-2.91
2022-12-14T17:01:29.665Z,-2.88
2022-12-14T17:04:37.768Z,-2.86
2022-12-14T17:07:43.651Z,-2.84
2022-12-14T17:10:49.404Z,-2.82
2022-12-14T17:13:54.893Z,-2.81
2022-12-14T17:17:02.981Z,-2.79
2022-12-14T17:20:16.426Z,-2.77
2022-12-14T17:23:22.624Z,-2.76
2022-12-14T17:26:30.970Z,-2.75
2022-12-14T17:29:36.524Z,-2.73
2022-12-14T17:32:42.417Z,-2.73
2022-12-14T17:35:47.944Z,-2.70
2022-12-14T17:38:53.478Z,-2.69
2022-12-14T17:41:59.132Z,-2.70
2022-12-14T17:45:05.257Z,-2.68
2022-12-14T17:48:13.766Z,-2.65
2022-12-14T17:51:25.358Z,-2.63
2022-12-14T17:54:31.262Z,-2.62
2022-12-14T17:57:37.060Z,-2.61
2022-12-14T18:01:01.871Z,-2.58
2022-12-14T18:04:08.735Z,-2.55
2022-12-14T18:07:14.552Z,-2.52
2022-12-14T18:10:20.365Z,-2.52
2022-12-14T18:13:27.534Z,-2.52
2022-12-14T18:16:33.726Z,-2.51
2022-12-14T18:19:39.773Z,-2.49
2022-12-14T18:22:49.650Z,-2.49
2022-12-14T18:25:58.003Z,-2.50
2022-12-14T18:29:03.639Z,-2.49
2022-12-14T18:32:11.335Z,-2.48
2022-12-14T18:35:20.537Z,-2.47
2022-12-14T18:38:26.784Z,-2.46
2022-12-14T18:41:31.368Z,-2.46
2022-12-14T18:44:38.054Z,-2.46
2022-12-14T18:47:43.890Z,-2.46
2022-12-14T18:50:50.518Z,-2.45
2022-12-14T18:53:58.386Z,-2.43
2022-12-14T18:57:04.056Z,-2.43
2022-12-14T19:00:13.081Z,-2.43
2022-12-14T19:03:19.045Z,-2.43
2022-12-14T19:09:51.822Z,-2.40
2022-12-14T19:12:59.037Z,-2.38
2022-12-14T19:16:04.930Z,-2.38
2022-12-14T19:19:10.632Z,-2.38
2022-12-14T19:22:16.385Z,-2.38
2022-12-14T19:25:23.777Z,-2.38
2022-12-14T19:28:33.427Z,-2.40
2022-12-14T19:31:39.332Z,-2.41
2022-12-14T19:34:45.032Z,-2.46
2022-12-14T19:37:51.297Z,-2.50
2022-12-14T19:41:02.717Z,-2.55
2022-12-14T19:44:08.541Z,-2.57
2022-12-14T19:47:14.397Z,-2.55
2022-12-14T19:50:20.402Z,-2.53
2022-12-14T19:53:26.154Z,-2.51
2022-12-14T19:56:32.070Z,-2.48
2022-12-14T19:59:37.822Z,-2.46
2022-12-14T20:02:43.670Z,-2.47
2022-12-14T20:05:58.622Z,-2.47
2022-12-14T20:09:06.671Z,-2.46
2022-12-14T20:12:12.216Z,-2.45
2022-12-14T20:15:18.017Z,-2.45
2022-12-14T20:18:25.158Z,-2.47
2022-12-14T20:21:30.799Z,-2.50
2022-12-14T20:24:37.198Z,-2.52
2022-12-14T20:27:42.921Z,-2.51
2022-12-14T20:30:49.392Z,-2.48
2022-12-14T20:33:55.409Z,-2.46
2022-12-14T20:37:01.164Z,-2.43
2022-12-14T20:40:08.931Z,-2.40
2022-12-14T20:43:14.670Z,-2.40
2022-12-14T20:46:34.904Z,-2.48
2022-12-14T20:49:41.013Z,-2.60
2022-12-14T20:52:46.672Z,-2.69
2022-12-14T20:55:54.985Z,-2.74
2022-12-14T20:59:00.642Z,-2.75
2022-12-14T21:02:06.344Z,-2.74
2022-12-14T21:05:12.452Z,-2.70
2022-12-14T21:08:18.307Z,-2.67
2022-12-14T21:11:42.767Z,-2.65
2022-12-14T21:14:49.347Z,-2.63
2022-12-14T21:17:55.027Z,-2.62
2022-12-14T21:21:06.207Z,-2.63
2022-12-14T21:24:25.729Z,-2.62
2022-12-14T21:27:40.805Z,-2.57
2022-12-14T21:30:46.667Z,-2.51
2022-12-14T21:33:52.674Z,-2.48
2022-12-14T21:36:59.047Z,-2.46
2022-12-14T21:40:05.239Z,-2.43
2022-12-14T21:43:10.963Z,-2.39
2022-12-14T21:46:17.170Z,-2.37
2022-12-14T21:49:23.494Z,-2.36
2022-12-14T21:52:28.331Z,-2.34
2022-12-14T21:55:33.980Z,-2.32
2022-12-14T21:58:39.630Z,-2.30
2022-12-14T22:01:45.718Z,-2.28
2022-12-14T22:04:56.170Z,-2.28
2022-12-14T22:08:02.423Z,-2.26
2022-12-14T22:11:08.484Z,-2.26
2022-12-14T22:14:15.571Z,-2.24
2022-12-14T22:17:21.322Z,-2.22
2022-12-14T22:20:26.975Z,-2.20
2022-12-14T22:23:35.945Z,-2.20
2022-12-14T22:26:45.729Z,-2.21
2022-12-14T22:29:51.217Z,-2.19
2022-12-14T22:32:56.851Z,-2.19
2022-12-14T22:36:02.709Z,-2.17
2022-12-14T22:39:08.361Z,-2.17
2022-12-14T22:42:13.917Z,-2.17
2022-12-14T22:45:19.562Z,-2.16
2022-12-14T22:48:25.214Z,-2.15
2022-12-14T22:51:30.713Z,-2.14
2022-12-14T22:54:38.262Z,-2.13
2022-12-14T22:57:47.443Z,-2.12
2022-12-14T23:00:56.974Z,-2.13
2022-12-14T23:04:03.515Z,-2.12
2022-12-14T23:07:09.368Z,-2.11
2022-12-14T23:10:32.947Z,-2.11
2022-12-14T23:13:56.509Z,-2.12
2022-12-14T23:17:20.595Z,-2.10
2022-12-14T23:20:44.063Z,-2.10
2022-12-14T23:24:07.636Z,-2.09
2022-12-14T23:27:31.002Z,-2.09
2022-12-14T23:30:54.931Z,-2.10
2022-12-14T23:34:18.349Z,-2.10
2022-12-14T23:37:42.545Z,-2.10
2022-12-14T23:41:06.006Z,-2.10
2022-12-14T23:44:29.476Z,-2.10
2022-12-14T23:47:52.741Z,-2.09
2022-12-14T23:51:16.310Z,-2.07
2022-12-14T23:54:39.985Z,-2.07
2022-12-14T23:58:03.047Z,-2.07
